sensor_id;sensor_type;location;lat;lon;timestamp;temperature;humidity
51739;DHT22;37815;52.692;6.226;2023-04-06T00:03:29;10.20;73.40
51739;DHT22;37815;52.692;6.226;2023-04-06T00:08:29;10.10;73.30
51739;DHT22;37815;52.692;6.226;2023-04-06T00:13:30;10.10;73.40
51739;DHT22;37815;52.692;6.226;2023-04-06T00:18:31;10.10;73.40
51739;DHT22;37815;52.692;6.226;2023-04-06T00:23:32;10.00;73.30
51739;DHT22;37815;52.692;6.226;2023-04-06T00:28:32;10.00;73.30
51739;DHT22;37815;52.692;6.226;2023-04-06T00:33:33;10.00;73.30
51739;DHT22;37815;52.692;6.226;2023-04-06T00:38:33;10.00;73.30
51739;DHT22;37815;52.692;6.226;2023-04-06T00:43:34;9.90;73.40
51739;DHT22;37815;52.692;6.226;2023-04-06T00:48:35;9.90;73.40
51739;DHT22;37815;52.692;6.226;2023-04-06T00:53:35;9.90;73.40
51739;DHT22;37815;52.692;6.226;2023-04-06T00:58:36;9.90;73.40
51739;DHT22;37815;52.692;6.226;2023-04-06T01:03:40;9.80;73.40
51739;DHT22;37815;52.692;6.226;2023-04-06T01:08:42;9.80;73.40
51739;DHT22;37815;52.692;6.226;2023-04-06T01:13:43;9.80;73.50
51739;DHT22;37815;52.692;6.226;2023-04-06T01:18:43;9.70;73.50
51739;DHT22;37815;52.692;6.226;2023-04-06T01:23:45;9.70;73.50
51739;DHT22;37815;52.692;6.226;2023-04-06T01:28:46;9.70;73.60
51739;DHT22;37815;52.692;6.226;2023-04-06T01:33:47;9.70;73.60
51739;DHT22;37815;52.692;6.226;2023-04-06T01:38:47;9.60;73.60
51739;DHT22;37815;52.692;6.226;2023-04-06T01:43:48;9.60;73.70
51739;DHT22;37815;52.692;6.226;2023-04-06T01:48:49;9.60;73.70
51739;DHT22;37815;52.692;6.226;2023-04-06T01:53:50;9.50;73.70
51739;DHT22;37815;52.692;6.226;2023-04-06T01:58:51;9.50;73.80
51739;DHT22;37815;52.692;6.226;2023-04-06T02:03:51;9.50;73.80
51739;DHT22;37815;52.692;6.226;2023-04-06T02:08:52;9.50;73.90
51739;DHT22;37815;52.692;6.226;2023-04-06T02:13:53;9.40;73.90
51739;DHT22;37815;52.692;6.226;2023-04-06T02:18:53;9.40;73.90
51739;DHT22;37815;52.692;6.226;2023-04-06T02:23:54;9.40;74.00
51739;DHT22;37815;52.692;6.226;2023-04-06T02:28:54;9.30;74.00
51739;DHT22;37815;52.692;6.226;2023-04-06T02:33:55;9.30;74.60
51739;DHT22;37815;52.692;6.226;2023-04-06T02:38:56;9.30;74.00
51739;DHT22;37815;52.692;6.226;2023-04-06T02:43:56;9.20;74.00
51739;DHT22;37815;52.692;6.226;2023-04-06T02:48:57;9.20;74.10
51739;DHT22;37815;52.692;6.226;2023-04-06T02:54:00;9.20;74.10
51739;DHT22;37815;52.692;6.226;2023-04-06T02:59:01;9.20;74.20
51739;DHT22;37815;52.692;6.226;2023-04-06T03:04:02;9.20;74.20
51739;DHT22;37815;52.692;6.226;2023-04-06T03:09:02;9.20;74.20
51739;DHT22;37815;52.692;6.226;2023-04-06T03:14:03;9.10;74.20
51739;DHT22;37815;52.692;6.226;2023-04-06T03:19:04;9.10;74.20
51739;DHT22;37815;52.692;6.226;2023-04-06T03:24:05;9.00;74.10
51739;DHT22;37815;52.692;6.226;2023-04-06T03:29:06;9.00;74.20
51739;DHT22;37815;52.692;6.226;2023-04-06T03:34:06;9.00;74.30
51739;DHT22;37815;52.692;6.226;2023-04-06T03:39:07;9.00;74.30
51739;DHT22;37815;52.692;6.226;2023-04-06T03:44:08;8.90;74.30
51739;DHT22;37815;52.692;6.226;2023-04-06T03:49:08;8.90;74.40
51739;DHT22;37815;52.692;6.226;2023-04-06T03:54:09;8.90;74.40
51739;DHT22;37815;52.692;6.226;2023-04-06T03:59:09;8.80;74.40
51739;DHT22;37815;52.692;6.226;2023-04-06T04:04:10;8.80;74.40
51739;DHT22;37815;52.692;6.226;2023-04-06T04:09:11;8.80;74.50
51739;DHT22;37815;52.692;6.226;2023-04-06T04:14:11;8.80;74.50
51739;DHT22;37815;52.692;6.226;2023-04-06T04:19:12;8.80;74.50
51739;DHT22;37815;52.692;6.226;2023-04-06T04:24:13;8.70;74.50
51739;DHT22;37815;52.692;6.226;2023-04-06T04:29:13;8.70;75.20
51739;DHT22;37815;52.692;6.226;2023-04-06T04:34:14;8.70;74.60
51739;DHT22;37815;52.692;6.226;2023-04-06T04:39:15;8.70;74.70
51739;DHT22;37815;52.692;6.226;2023-04-06T04:44:16;8.60;74.70
51739;DHT22;37815;52.692;6.226;2023-04-06T04:49:17;8.60;74.70
51739;DHT22;37815;52.692;6.226;2023-04-06T04:54:17;8.60;74.70
51739;DHT22;37815;52.692;6.226;2023-04-06T04:59:18;8.60;74.80
51739;DHT22;37815;52.692;6.226;2023-04-06T05:04:18;8.60;74.90
51739;DHT22;37815;52.692;6.226;2023-04-06T05:09:19;8.60;74.90
51739;DHT22;37815;52.692;6.226;2023-04-06T05:14:20;8.50;74.80
51739;DHT22;37815;52.692;6.226;2023-04-06T05:19:21;8.50;74.90
51739;DHT22;37815;52.692;6.226;2023-04-06T05:24:21;8.50;74.90
51739;DHT22;37815;52.692;6.226;2023-04-06T05:29:22;8.50;74.90
51739;DHT22;37815;52.692;6.226;2023-04-06T05:34:23;8.50;74.90
51739;DHT22;37815;52.692;6.226;2023-04-06T05:39:23;8.50;74.90
51739;DHT22;37815;52.692;6.226;2023-04-06T05:44:24;8.50;74.90
51739;DHT22;37815;52.692;6.226;2023-04-06T05:49:24;8.40;74.90
51739;DHT22;37815;52.692;6.226;2023-04-06T05:54:25;8.40;74.90
51739;DHT22;37815;52.692;6.226;2023-04-06T05:59:26;8.40;74.90
51739;DHT22;37815;52.692;6.226;2023-04-06T06:04:30;8.40;74.90
51739;DHT22;37815;52.692;6.226;2023-04-06T06:09:31;8.40;74.90
51739;DHT22;37815;52.692;6.226;2023-04-06T06:14:31;8.40;74.80
51739;DHT22;37815;52.692;6.226;2023-04-06T06:19:32;8.40;74.80
51739;DHT22;37815;52.692;6.226;2023-04-06T06:24:32;8.40;74.70
51739;DHT22;37815;52.692;6.226;2023-04-06T06:29:33;8.40;74.70
51739;DHT22;37815;52.692;6.226;2023-04-06T06:34:34;8.40;74.60
51739;DHT22;37815;52.692;6.226;2023-04-06T06:39:35;8.50;74.70
51739;DHT22;37815;52.692;6.226;2023-04-06T06:44:35;8.50;75.20
51739;DHT22;37815;52.692;6.226;2023-04-06T06:49:36;8.50;74.60
51739;DHT22;37815;52.692;6.226;2023-04-06T06:54:36;8.50;74.60
51739;DHT22;37815;52.692;6.226;2023-04-06T06:59:37;8.50;74.50
51739;DHT22;37815;52.692;6.226;2023-04-06T07:04:38;8.50;74.50
51739;DHT22;37815;52.692;6.226;2023-04-06T07:09:38;8.50;74.50
51739;DHT22;37815;52.692;6.226;2023-04-06T07:14:39;8.50;74.50
51739;DHT22;37815;52.692;6.226;2023-04-06T07:19:39;8.50;74.50
51739;DHT22;37815;52.692;6.226;2023-04-06T07:24:41;8.60;74.50
51739;DHT22;37815;52.692;6.226;2023-04-06T07:29:41;8.70;74.50
51739;DHT22;37815;52.692;6.226;2023-04-06T07:34:42;8.70;74.40
51739;DHT22;37815;52.692;6.226;2023-04-06T07:39:42;8.70;74.40
51739;DHT22;37815;52.692;6.226;2023-04-06T07:44:43;8.70;74.40
51739;DHT22;37815;52.692;6.226;2023-04-06T07:49:44;8.70;74.30
51739;DHT22;37815;52.692;6.226;2023-04-06T07:54:45;8.70;74.40
51739;DHT22;37815;52.692;6.226;2023-04-06T07:59:46;8.70;74.40
51739;DHT22;37815;52.692;6.226;2023-04-06T08:04:47;8.80;74.60
51739;DHT22;37815;52.692;6.226;2023-04-06T08:09:48;8.80;74.60
51739;DHT22;37815;52.692;6.226;2023-04-06T08:14:48;8.80;74.60
51739;DHT22;37815;52.692;6.226;2023-04-06T08:19:49;8.90;74.60
51739;DHT22;37815;52.692;6.226;2023-04-06T08:24:50;8.90;74.60
51739;DHT22;37815;52.692;6.226;2023-04-06T08:29:51;9.00;74.50
51739;DHT22;37815;52.692;6.226;2023-04-06T08:34:55;9.00;74.50
51739;DHT22;37815;52.692;6.226;2023-04-06T08:40:03;9.10;74.50
51739;DHT22;37815;52.692;6.226;2023-04-06T08:45:05;9.10;74.40
51739;DHT22;37815;52.692;6.226;2023-04-06T08:50:06;9.20;74.30
51739;DHT22;37815;52.692;6.226;2023-04-06T08:55:08;9.30;74.30
51739;DHT22;37815;52.692;6.226;2023-04-06T09:00:10;9.30;74.30
51739;DHT22;37815;52.692;6.226;2023-04-06T09:05:12;9.40;74.30
51739;DHT22;37815;52.692;6.226;2023-04-06T09:10:13;9.50;74.20
51739;DHT22;37815;52.692;6.226;2023-04-06T09:15:21;9.60;74.20
51739;DHT22;37815;52.692;6.226;2023-04-06T09:20:23;9.70;74.20
51739;DHT22;37815;52.692;6.226;2023-04-06T09:25:26;9.70;74.10
51739;DHT22;37815;52.692;6.226;2023-04-06T09:30:31;9.80;74.00
51739;DHT22;37815;52.692;6.226;2023-04-06T09:35:32;9.80;74.00
51739;DHT22;37815;52.692;6.226;2023-04-06T09:40:33;9.80;74.00
51739;DHT22;37815;52.692;6.226;2023-04-06T09:45:35;9.90;74.00
51739;DHT22;37815;52.692;6.226;2023-04-06T09:50:35;9.90;74.00
51739;DHT22;37815;52.692;6.226;2023-04-06T09:55:43;11.10;74.60
51739;DHT22;37815;52.692;6.226;2023-04-06T10:00:49;10.00;73.90
51739;DHT22;37815;52.692;6.226;2023-04-06T10:05:57;10.10;73.90
51739;DHT22;37815;52.692;6.226;2023-04-06T10:11:02;10.10;73.90
51739;DHT22;37815;52.692;6.226;2023-04-06T10:16:03;10.20;73.90
51739;DHT22;37815;52.692;6.226;2023-04-06T10:21:11;10.20;73.80
51739;DHT22;37815;52.692;6.226;2023-04-06T10:26:15;10.30;73.70
51739;DHT22;37815;52.692;6.226;2023-04-06T10:31:27;10.40;73.60
51739;DHT22;37815;52.692;6.226;2023-04-06T10:36:31;10.50;73.50
51739;DHT22;37815;52.692;6.226;2023-04-06T10:41:43;10.60;73.30
51739;DHT22;37815;52.692;6.226;2023-04-06T10:46:55;10.60;73.10
51739;DHT22;37815;52.692;6.226;2023-04-06T10:51:57;10.70;73.00
51739;DHT22;37815;52.692;6.226;2023-04-06T10:56:57;10.80;73.00
51739;DHT22;37815;52.692;6.226;2023-04-06T11:01:58;10.80;72.80
51739;DHT22;37815;52.692;6.226;2023-04-06T11:06:58;10.90;72.80
51739;DHT22;37815;52.692;6.226;2023-04-06T11:11:59;10.90;72.70
51739;DHT22;37815;52.692;6.226;2023-04-06T11:17:01;10.90;72.60
51739;DHT22;37815;52.692;6.226;2023-04-06T11:22:07;11.00;72.60
51739;DHT22;37815;52.692;6.226;2023-04-06T11:27:08;11.00;72.50
51739;DHT22;37815;52.692;6.226;2023-04-06T11:32:09;11.10;72.50
51739;DHT22;37815;52.692;6.226;2023-04-06T11:37:11;11.10;72.50
51739;DHT22;37815;52.692;6.226;2023-04-06T11:42:12;11.10;72.40
51739;DHT22;37815;52.692;6.226;2023-04-06T11:47:12;11.20;72.40
51739;DHT22;37815;52.692;6.226;2023-04-06T11:57:21;11.20;72.30
51739;DHT22;37815;52.692;6.226;2023-04-06T12:02:23;11.20;72.50
51739;DHT22;37815;52.692;6.226;2023-04-06T12:07:24;11.20;72.70
51739;DHT22;37815;52.692;6.226;2023-04-06T12:12:24;11.20;72.50
51739;DHT22;37815;52.692;6.226;2023-04-06T12:17:25;11.30;72.60
51739;DHT22;37815;52.692;6.226;2023-04-06T12:22:26;11.30;72.60
51739;DHT22;37815;52.692;6.226;2023-04-06T12:27:27;11.30;72.70
51739;DHT22;37815;52.692;6.226;2023-04-06T12:32:27;11.30;72.80
51739;DHT22;37815;52.692;6.226;2023-04-06T12:37:28;11.30;72.80
51739;DHT22;37815;52.692;6.226;2023-04-06T12:42:28;11.30;72.90
51739;DHT22;37815;52.692;6.226;2023-04-06T12:47:29;11.40;73.10
51739;DHT22;37815;52.692;6.226;2023-04-06T12:52:29;11.40;73.20
51739;DHT22;37815;52.692;6.226;2023-04-06T12:57:32;11.30;73.40
51739;DHT22;37815;52.692;6.226;2023-04-06T13:02:32;11.30;73.70
51739;DHT22;37815;52.692;6.226;2023-04-06T13:07:33;11.30;73.90
51739;DHT22;37815;52.692;6.226;2023-04-06T13:12:33;11.20;74.10
51739;DHT22;37815;52.692;6.226;2023-04-06T13:17:34;11.20;74.30
51739;DHT22;37815;52.692;6.226;2023-04-06T13:22:35;11.20;74.50
51739;DHT22;37815;52.692;6.226;2023-04-06T13:27:36;11.20;74.70
51739;DHT22;37815;52.692;6.226;2023-04-06T13:32:37;11.20;74.90
51739;DHT22;37815;52.692;6.226;2023-04-06T13:37:38;11.10;75.10
51739;DHT22;37815;52.692;6.226;2023-04-06T13:42:38;11.10;75.30
51739;DHT22;37815;52.692;6.226;2023-04-06T13:47:41;11.10;75.50
51739;DHT22;37815;52.692;6.226;2023-04-06T13:52:41;11.10;75.70
51739;DHT22;37815;52.692;6.226;2023-04-06T13:57:42;11.10;76.00
51739;DHT22;37815;52.692;6.226;2023-04-06T14:02:43;11.10;76.10
51739;DHT22;37815;52.692;6.226;2023-04-06T14:07:44;11.10;76.20
51739;DHT22;37815;52.692;6.226;2023-04-06T14:12:44;11.10;76.70
51739;DHT22;37815;52.692;6.226;2023-04-06T14:17:45;11.10;77.30
51739;DHT22;37815;52.692;6.226;2023-04-06T14:22:46;11.10;77.80
51739;DHT22;37815;52.692;6.226;2023-04-06T14:27:46;11.10;78.10
51739;DHT22;37815;52.692;6.226;2023-04-06T14:32:47;11.10;78.30
51739;DHT22;37815;52.692;6.226;2023-04-06T14:37:48;11.00;78.60
51739;DHT22;37815;52.692;6.226;2023-04-06T14:42:49;11.00;79.00
51739;DHT22;37815;52.692;6.226;2023-04-06T14:47:51;11.00;79.50
51739;DHT22;37815;52.692;6.226;2023-04-06T14:52:52;11.00;79.90
51739;DHT22;37815;52.692;6.226;2023-04-06T14:57:53;11.00;80.20
51739;DHT22;37815;52.692;6.226;2023-04-06T15:02:53;11.00;80.60
51739;DHT22;37815;52.692;6.226;2023-04-06T15:07:54;11.00;81.00
51739;DHT22;37815;52.692;6.226;2023-04-06T15:12:54;11.00;81.30
51739;DHT22;37815;52.692;6.226;2023-04-06T15:17:55;10.90;81.60
51739;DHT22;37815;52.692;6.226;2023-04-06T15:22:56;10.90;82.00
51739;DHT22;37815;52.692;6.226;2023-04-06T15:27:57;10.90;82.20
51739;DHT22;37815;52.692;6.226;2023-04-06T15:32:59;10.90;82.60
51739;DHT22;37815;52.692;6.226;2023-04-06T15:38:03;10.90;83.00
51739;DHT22;37815;52.692;6.226;2023-04-06T15:43:05;10.90;83.40
51739;DHT22;37815;52.692;6.226;2023-04-06T15:48:05;10.80;83.70
51739;DHT22;37815;52.692;6.226;2023-04-06T15:53:06;10.80;84.30
51739;DHT22;37815;52.692;6.226;2023-04-06T15:58:07;10.80;84.60
51739;DHT22;37815;52.692;6.226;2023-04-06T16:03:07;10.50;85.00
51739;DHT22;37815;52.692;6.226;2023-04-06T16:08:09;10.80;85.70
51739;DHT22;37815;52.692;6.226;2023-04-06T16:13:10;10.70;86.20
51739;DHT22;37815;52.692;6.226;2023-04-06T16:18:11;10.70;86.70
51739;DHT22;37815;52.692;6.226;2023-04-06T16:23:11;10.70;87.20
51739;DHT22;37815;52.692;6.226;2023-04-06T16:28:12;10.70;87.60
51739;DHT22;37815;52.692;6.226;2023-04-06T16:33:13;10.70;88.00
51739;DHT22;37815;52.692;6.226;2023-04-06T16:38:16;10.70;88.90
51739;DHT22;37815;52.692;6.226;2023-04-06T16:43:16;10.70;88.70
51739;DHT22;37815;52.692;6.226;2023-04-06T16:48:17;10.70;89.10
51739;DHT22;37815;52.692;6.226;2023-04-06T16:53:18;10.60;89.40
51739;DHT22;37815;52.692;6.226;2023-04-06T16:58:18;10.60;89.70
51739;DHT22;37815;52.692;6.226;2023-04-06T17:03:19;10.60;90.00
51739;DHT22;37815;52.692;6.226;2023-04-06T17:08:20;10.60;90.10
51739;DHT22;37815;52.692;6.226;2023-04-06T17:13:20;10.60;90.20
51739;DHT22;37815;52.692;6.226;2023-04-06T17:18:21;10.60;90.30
51739;DHT22;37815;52.692;6.226;2023-04-06T17:23:21;10.50;90.40
51739;DHT22;37815;52.692;6.226;2023-04-06T17:28:24;10.60;90.60
51739;DHT22;37815;52.692;6.226;2023-04-06T17:33:26;10.50;90.60
51739;DHT22;37815;52.692;6.226;2023-04-06T17:38:26;10.50;90.80
51739;DHT22;37815;52.692;6.226;2023-04-06T17:43:27;10.50;90.90
51739;DHT22;37815;52.692;6.226;2023-04-06T17:48:28;10.40;91.00
51739;DHT22;37815;52.692;6.226;2023-04-06T17:53:29;10.40;91.10
51739;DHT22;37815;52.692;6.226;2023-04-06T17:58:31;10.40;91.20
51739;DHT22;37815;52.692;6.226;2023-04-06T18:03:32;10.40;91.30
51739;DHT22;37815;52.692;6.226;2023-04-06T18:08:32;10.40;91.50
51739;DHT22;37815;52.692;6.226;2023-04-06T18:13:33;10.40;91.60
51739;DHT22;37815;52.692;6.226;2023-04-06T18:18:34;10.30;91.60
51739;DHT22;37815;52.692;6.226;2023-04-06T18:23:34;10.30;91.70
51739;DHT22;37815;52.692;6.226;2023-04-06T18:28:36;10.30;92.40
51739;DHT22;37815;52.692;6.226;2023-04-06T18:33:37;10.20;92.80
51739;DHT22;37815;52.692;6.226;2023-04-06T18:38:44;10.20;92.80
51739;DHT22;37815;52.692;6.226;2023-04-06T18:43:48;10.20;93.20
51739;DHT22;37815;52.692;6.226;2023-04-06T18:48:51;10.20;93.20
51739;DHT22;37815;52.692;6.226;2023-04-06T18:53:52;10.20;93.50
51739;DHT22;37815;52.692;6.226;2023-04-06T18:58:53;9.20;93.50
51739;DHT22;37815;52.692;6.226;2023-04-06T19:03:55;10.20;93.90
51739;DHT22;37815;52.692;6.226;2023-04-06T19:08:55;10.20;94.10
51739;DHT22;37815;52.692;6.226;2023-04-06T19:13:56;10.20;94.20
51739;DHT22;37815;52.692;6.226;2023-04-06T19:18:57;10.20;94.40
51739;DHT22;37815;52.692;6.226;2023-04-06T19:23:59;10.20;94.50
51739;DHT22;37815;52.692;6.226;2023-04-06T19:28:59;10.10;94.60
51739;DHT22;37815;52.692;6.226;2023-04-06T19:34:01;10.10;94.70
51739;DHT22;37815;52.692;6.226;2023-04-06T19:39:01;10.10;94.80
51739;DHT22;37815;52.692;6.226;2023-04-06T19:44:02;10.10;94.90
51739;DHT22;37815;52.692;6.226;2023-04-06T19:49:03;10.10;95.00
51739;DHT22;37815;52.692;6.226;2023-04-06T19:54:04;10.10;95.10
51739;DHT22;37815;52.692;6.226;2023-04-06T19:59:05;10.10;95.20
51739;DHT22;37815;52.692;6.226;2023-04-06T20:04:08;10.10;95.30
51739;DHT22;37815;52.692;6.226;2023-04-06T20:09:09;10.10;95.40
51739;DHT22;37815;52.692;6.226;2023-04-06T20:14:11;10.10;95.50
51739;DHT22;37815;52.692;6.226;2023-04-06T20:19:12;10.10;95.50
51739;DHT22;37815;52.692;6.226;2023-04-06T20:24:13;10.00;95.60
51739;DHT22;37815;52.692;6.226;2023-04-06T20:29:13;10.00;95.60
51739;DHT22;37815;52.692;6.226;2023-04-06T20:34:14;10.00;95.70
51739;DHT22;37815;52.692;6.226;2023-04-06T20:39:15;10.00;95.80
51739;DHT22;37815;52.692;6.226;2023-04-06T20:44:15;10.00;95.80
51739;DHT22;37815;52.692;6.226;2023-04-06T20:49:17;10.00;95.80
51739;DHT22;37815;52.692;6.226;2023-04-06T20:54:18;10.00;95.90
51739;DHT22;37815;52.692;6.226;2023-04-06T20:59:18;10.00;95.90
51739;DHT22;37815;52.692;6.226;2023-04-06T21:04:19;10.00;96.00
51739;DHT22;37815;52.692;6.226;2023-04-06T21:09:21;10.00;96.00
51739;DHT22;37815;52.692;6.226;2023-04-06T21:14:24;10.00;96.00
51739;DHT22;37815;52.692;6.226;2023-04-06T21:19:25;10.00;96.10
51739;DHT22;37815;52.692;6.226;2023-04-06T21:24:28;10.00;96.10
51739;DHT22;37815;52.692;6.226;2023-04-06T21:29:31;10.00;96.20
51739;DHT22;37815;52.692;6.226;2023-04-06T21:34:31;9.90;96.20
51739;DHT22;37815;52.692;6.226;2023-04-06T21:39:35;9.90;96.20
51739;DHT22;37815;52.692;6.226;2023-04-06T21:44:36;9.90;96.30
51739;DHT22;37815;52.692;6.226;2023-04-06T21:49:36;10.00;96.30
51739;DHT22;37815;52.692;6.226;2023-04-06T21:54:37;9.90;96.30
51739;DHT22;37815;52.692;6.226;2023-04-06T21:59:38;9.90;96.30
51739;DHT22;37815;52.692;6.226;2023-04-06T22:04:38;9.90;96.40
51739;DHT22;37815;52.692;6.226;2023-04-06T22:09:39;9.90;96.40
51739;DHT22;37815;52.692;6.226;2023-04-06T22:14:40;9.90;96.40
51739;DHT22;37815;52.692;6.226;2023-04-06T22:19:40;9.90;96.40
51739;DHT22;37815;52.692;6.226;2023-04-06T22:24:41;9.90;96.40
51739;DHT22;37815;52.692;6.226;2023-04-06T22:29:42;9.90;96.40
51739;DHT22;37815;52.692;6.226;2023-04-06T22:34:42;9.90;96.40
51739;DHT22;37815;52.692;6.226;2023-04-06T22:39:43;10.80;96.60
51739;DHT22;37815;52.692;6.226;2023-04-06T22:44:44;9.90;96.40
51739;DHT22;37815;52.692;6.226;2023-04-06T22:49:45;9.90;96.40
51739;DHT22;37815;52.692;6.226;2023-04-06T22:54:45;9.90;96.40
51739;DHT22;37815;52.692;6.226;2023-04-06T22:59:47;9.90;96.40
51739;DHT22;37815;52.692;6.226;2023-04-06T23:04:48;9.90;96.40
51739;DHT22;37815;52.692;6.226;2023-04-06T23:09:48;9.90;96.30
51739;DHT22;37815;52.692;6.226;2023-04-06T23:14:49;9.90;96.40
51739;DHT22;37815;52.692;6.226;2023-04-06T23:19:49;9.90;96.30
51739;DHT22;37815;52.692;6.226;2023-04-06T23:24:50;9.90;96.30
51739;DHT22;37815;52.692;6.226;2023-04-06T23:29:51;9.90;96.30
51739;DHT22;37815;52.692;6.226;2023-04-06T23:34:52;9.90;96.40
51739;DHT22;37815;52.692;6.226;2023-04-06T23:39:52;9.90;96.40
51739;DHT22;37815;52.692;6.226;2023-04-06T23:44:53;9.90;96.40
51739;DHT22;37815;52.692;6.226;2023-04-06T23:49:53;9.90;96.30
51739;DHT22;37815;52.692;6.226;2023-04-06T23:54:55;9.90;96.40
51739;DHT22;37815;52.692;6.226;2023-04-06T23:59:56;9.90;96.30
